Time;durP1;ratioP1;P1;durP2;ratioP2;P2;SDS_P1;SDS_P2;PMS_P1;PMS_P2;Temp;Humidity;BMP_temperature;BMP_pressure;BME280_temperature;BME280_humidity;BME280_pressure;Samples;Min_cycle;Max_cycle;Signal;HPM_P1;HPM_P2
2023/05/15 00:00:50;;;;;;;30.35;16.88;;;15.10;99.90;;;;;;5057965;28;20559;-77
2023/05/15 00:03:17;;;;;;;24.02;16.75;;;15.10;99.90;;;;;;5056713;28;20083;-78
2023/05/15 00:05:42;;;;;;;29.67;17.20;;;15.10;99.90;;;;;;5059656;28;20086;-78
2023/05/15 00:08:08;;;;;;;31.35;17.50;;;15.00;99.90;;;;;;5043354;28;21702;-77
2023/05/15 00:10:34;;;;;;;31.65;19.35;;;15.00;99.90;;;;;;5060035;28;20107;-78
2023/05/15 00:13:01;;;;;;;28.55;17.95;;;15.00;99.90;;;;;;5060405;28;20033;-81
2023/05/15 00:15:27;;;;;;;34.67;18.42;;;14.90;99.90;;;;;;5036674;28;20120;-77
2023/05/15 00:17:53;;;;;;;28.35;17.55;;;14.90;99.90;;;;;;5060451;28;20107;-78
2023/05/15 00:20:18;;;;;;;31.70;17.63;;;14.80;99.90;;;;;;5060596;28;20453;-77
2023/05/15 00:22:46;;;;;;;28.45;18.40;;;14.70;99.90;;;;;;5060641;28;20020;-78
2023/05/15 00:25:12;;;;;;;32.05;17.83;;;14.60;99.90;;;;;;5057443;28;20035;-77
2023/05/15 00:27:37;;;;;;;30.90;17.45;;;14.60;99.90;;;;;;5059024;28;20545;-78
2023/05/15 00:30:03;;;;;;;30.25;18.83;;;14.60;99.90;;;;;;5061640;28;20027;-77
2023/05/15 00:32:29;;;;;;;38.00;17.50;;;14.70;99.90;;;;;;5038798;28;20460;-78
2023/05/15 00:34:55;;;;;;;30.98;18.10;;;14.60;99.90;;;;;;5060799;28;20063;-78
2023/05/15 00:37:20;;;;;;;34.88;18.05;;;14.60;99.90;;;;;;5060254;28;20464;-78
2023/05/15 00:39:46;;;;;;;31.13;17.30;;;14.60;99.90;;;;;;5042596;28;20059;-77
2023/05/15 00:42:12;;;;;;;31.70;17.90;;;14.60;99.90;;;;;;5060846;28;20012;-77
2023/05/15 00:44:40;;;;;;;31.65;17.42;;;14.50;99.90;;;;;;5059664;28;20024;-78
2023/05/15 00:47:06;;;;;;;31.92;18.02;;;14.50;99.90;;;;;;5061067;28;20063;-82
2023/05/15 00:49:34;;;;;;;34.45;18.48;;;14.50;99.90;;;;;;5058531;28;20475;-82
2023/05/15 00:52:07;;;;;;;29.48;18.23;;;14.50;99.90;;;;;;5059703;28;20483;-81
2023/05/15 00:54:32;;;;;;;27.33;18.00;;;14.50;99.90;;;;;;5061905;28;20012;-83
2023/05/15 00:56:59;;;;;;;30.88;17.40;;;14.50;99.90;;;;;;5039238;28;20558;-81
2023/05/15 00:59:27;;;;;;;33.15;18.40;;;14.50;99.90;;;;;;5040517;28;20020;-80
2023/05/15 01:01:53;;;;;;;31.40;18.20;;;14.60;99.90;;;;;;5059515;28;20624;-84
2023/05/15 01:04:20;;;;;;;31.77;18.98;;;14.50;99.90;;;;;;5061595;28;20510;-82
2023/05/15 01:06:48;;;;;;;32.92;19.25;;;14.50;99.90;;;;;;5058503;28;20039;-83
2023/05/15 01:09:14;;;;;;;32.05;18.05;;;14.50;99.90;;;;;;5042844;28;20078;-81
2023/05/15 01:11:41;;;;;;;32.65;19.38;;;14.40;99.90;;;;;;5060623;28;20400;-83
2023/05/15 01:14:07;;;;;;;27.30;17.95;;;14.40;99.90;;;;;;5060874;28;20488;-84
2023/05/15 01:16:34;;;;;;;29.58;18.45;;;14.40;99.90;;;;;;5061328;28;20021;-82
2023/05/15 01:19:02;;;;;;;30.88;19.48;;;14.30;99.90;;;;;;5041265;28;20024;-82
2023/05/15 01:21:35;;;;;;;33.75;18.85;;;14.20;99.90;;;;;;5039972;28;20032;-82
2023/05/15 01:24:03;;;;;;;33.60;18.70;;;14.10;99.90;;;;;;5059203;28;20017;-83
2023/05/15 01:26:54;;;;;;;28.23;19.33;;;14.00;99.90;;;;;;5046402;28;20039;-85
2023/05/15 01:29:26;;;;;;;34.25;20.25;;;14.00;99.90;;;;;;5058114;28;20016;-83
2023/05/15 01:32:17;;;;;;;38.42;19.05;;;14.00;99.90;;;;;;5060746;28;20016;-83
2023/05/15 01:35:21;;;;;;;40.30;20.20;;;14.00;99.90;;;;;;5042636;28;20624;-82
2023/05/15 01:38:14;;;;;;;34.63;18.83;;;14.00;99.90;;;;;;5042317;28;20045;-83
2023/05/15 01:40:40;;;;;;;36.63;18.60;;;13.90;99.90;;;;;;5061198;28;20017;-83
2023/05/15 01:43:15;;;;;;;32.75;19.88;;;13.90;99.90;;;;;;5042661;28;20063;-82
2023/05/15 01:45:42;;;;;;;32.50;19.50;;;13.80;99.90;;;;;;5042883;28;20031;-82
2023/05/15 01:48:11;;;;;;;34.03;20.10;;;13.70;99.90;;;;;;5044108;28;20137;-83
2023/05/15 01:50:39;;;;;;;37.10;21.13;;;13.70;99.90;;;;;;5040035;28;20036;-83
2023/05/15 01:53:07;;;;;;;36.65;19.80;;;13.60;99.90;;;;;;5060743;28;20040;-84
2023/05/15 01:55:34;;;;;;;41.72;20.38;;;13.60;99.90;;;;;;5041417;28;20727;-83
2023/05/15 01:58:00;;;;;;;34.40;19.85;;;13.60;99.90;;;;;;5042550;28;20170;-83
2023/05/15 02:00:29;;;;;;;36.00;20.77;;;13.50;99.90;;;;;;5040961;28;20386;-84
2023/05/15 02:02:56;;;;;;;33.63;20.00;;;13.50;99.90;;;;;;5060150;28;20021;-81
2023/05/15 02:05:22;;;;;;;33.13;20.85;;;13.60;99.90;;;;;;5061529;28;20306;-79
2023/05/15 02:07:48;;;;;;;36.40;21.05;;;13.70;99.90;;;;;;5083701;28;20068;-82
2023/05/15 02:10:16;;;;;;;31.85;19.95;;;13.60;99.90;;;;;;5047446;28;20120;-83
2023/05/15 02:12:42;;;;;;;39.30;19.92;;;13.60;99.90;;;;;;5027354;28;20033;-83
2023/05/15 02:15:09;;;;;;;32.20;19.92;;;13.60;99.90;;;;;;5064519;28;20088;-84
2023/05/15 02:17:38;;;;;;;37.92;20.92;;;13.60;99.90;;;;;;5061155;28;20017;-81
2023/05/15 02:20:07;;;;;;;36.40;19.63;;;13.60;99.90;;;;;;5045030;28;21061;-83
2023/05/15 02:22:33;;;;;;;39.30;19.80;;;13.60;99.90;;;;;;5065249;28;20028;-84
2023/05/15 02:24:58;;;;;;;36.17;20.05;;;13.60;99.90;;;;;;5042165;28;20052;-81
2023/05/15 02:27:27;;;;;;;31.58;18.80;;;13.60;99.90;;;;;;5064191;28;20084;-83
2023/05/15 02:30:05;;;;;;;32.80;19.20;;;13.60;99.90;;;;;;5066250;28;20027;-82
2023/05/15 02:32:55;;;;;;;31.30;19.23;;;13.70;99.90;;;;;;5085524;28;20045;-81
2023/05/15 02:35:45;;;;;;;40.58;19.75;;;13.60;99.90;;;;;;5088274;28;20097;-79
2023/05/15 02:38:19;;;;;;;35.47;19.77;;;13.50;99.90;;;;;;5045377;28;20020;-79
2023/05/15 02:40:46;;;;;;;34.80;19.42;;;13.40;99.90;;;;;;5070787;28;20021;-79
2023/05/15 02:43:14;;;;;;;30.60;19.10;;;13.40;99.90;;;;;;5069514;28;20475;-80
2023/05/15 02:45:40;;;;;;;33.15;20.05;;;13.40;99.90;;;;;;5042314;28;20020;-84
2023/05/15 02:48:07;;;;;;;35.47;19.92;;;13.30;99.90;;;;;;5043295;28;20033;-80
2023/05/15 02:50:33;;;;;;;36.70;18.83;;;13.30;99.90;;;;;;5061360;28;20040;-79
2023/05/15 02:53:08;;;;;;;32.30;19.70;;;13.30;99.90;;;;;;5061694;28;20028;-85
2023/05/15 02:55:34;;;;;;;38.83;20.02;;;13.30;99.90;;;;;;5061685;28;20108;-82
2023/05/15 02:58:01;;;;;;;32.72;18.85;;;13.30;99.90;;;;;;5043271;28;20095;-82
2023/05/15 03:00:26;;;;;;;37.75;20.85;;;13.20;99.90;;;;;;5061325;28;20020;-81
2023/05/15 03:02:52;;;;;;;34.70;20.00;;;13.10;99.90;;;;;;5063508;28;20540;-83
2023/05/15 03:05:18;;;;;;;37.20;20.75;;;13.10;99.90;;;;;;5060409;28;20144;-81
2023/05/15 03:07:46;;;;;;;38.92;19.15;;;13.10;99.90;;;;;;5045984;28;20051;-82
2023/05/15 03:10:11;;;;;;;34.00;19.58;;;13.10;99.90;;;;;;5062561;28;20388;-82
2023/05/15 03:12:38;;;;;;;36.95;19.73;;;13.10;99.90;;;;;;5061060;28;20392;-81
2023/05/15 03:15:05;;;;;;;35.83;18.95;;;13.10;99.90;;;;;;5045230;28;20024;-81
2023/05/15 03:17:33;;;;;;;38.45;20.00;;;13.10;99.90;;;;;;5062729;28;20039;-82
2023/05/15 03:19:59;;;;;;;34.47;19.40;;;13.10;99.90;;;;;;5085644;28;20353;-80
2023/05/15 03:22:24;;;;;;;36.58;20.15;;;13.10;99.90;;;;;;5089401;28;20035;-80
2023/05/15 03:24:53;;;;;;;30.50;18.45;;;13.10;99.90;;;;;;5066926;28;20078;-81
2023/05/15 03:27:21;;;;;;;33.85;19.50;;;13.10;99.90;;;;;;5065964;28;20547;-81
2023/05/15 03:29:50;;;;;;;29.70;18.83;;;13.10;99.90;;;;;;5061920;28;20476;-81
2023/05/15 03:32:16;;;;;;;32.17;17.85;;;13.00;99.90;;;;;;5060964;28;20016;-84
2023/05/15 03:34:44;;;;;;;30.55;18.30;;;13.00;99.90;;;;;;5064289;28;20413;-83
2023/05/15 03:37:10;;;;;;;33.05;19.23;;;13.00;99.90;;;;;;5062192;28;20104;-80
2023/05/15 03:39:35;;;;;;;34.92;18.90;;;13.00;99.90;;;;;;5065363;28;20093;-83
2023/05/15 03:42:01;;;;;;;30.40;18.67;;;13.00;99.90;;;;;;5050230;28;20399;-79
2023/05/15 03:44:28;;;;;;;28.60;18.10;;;13.00;99.90;;;;;;5070431;28;20028;-81
2023/05/15 03:46:54;;;;;;;32.45;17.85;;;12.90;99.90;;;;;;5062420;28;20063;-85
2023/05/15 03:49:19;;;;;;;30.73;17.13;;;12.90;99.90;;;;;;5058531;28;20615;-82
2023/05/15 03:51:45;;;;;;;33.17;19.15;;;12.90;99.90;;;;;;5063399;28;20480;-84
2023/05/15 03:54:11;;;;;;;34.60;18.27;;;12.90;99.90;;;;;;5063155;28;20036;-81
2023/05/15 03:56:36;;;;;;;31.25;18.08;;;12.80;99.90;;;;;;5082512;28;20053;-80
2023/05/15 03:59:04;;;;;;;31.15;18.65;;;12.90;99.90;;;;;;5084396;28;20040;-80
2023/05/15 04:01:30;;;;;;;30.58;18.23;;;12.80;99.90;;;;;;5086702;28;20018;-80
2023/05/15 04:03:55;;;;;;;31.73;17.35;;;12.80;99.90;;;;;;5087435;28;20037;-79
2023/05/15 04:06:21;;;;;;;32.50;18.33;;;12.90;99.90;;;;;;5064528;28;20036;-81
2023/05/15 04:08:48;;;;;;;34.65;18.15;;;12.90;99.90;;;;;;5068005;28;20106;-79
2023/05/15 04:11:13;;;;;;;35.65;19.23;;;12.90;99.90;;;;;;5085616;28;20013;-81
2023/05/15 04:13:39;;;;;;;27.77;17.38;;;12.90;99.90;;;;;;5068434;28;20062;-80
2023/05/15 04:16:08;;;;;;;33.90;19.63;;;12.90;99.90;;;;;;5068163;28;20039;-84
2023/05/15 04:18:34;;;;;;;31.63;18.85;;;12.90;99.90;;;;;;5043055;28;20479;-83
2023/05/15 04:20:59;;;;;;;32.10;19.48;;;12.80;99.90;;;;;;5052505;28;20035;-80
2023/05/15 04:23:31;;;;;;;33.30;19.55;;;12.70;99.90;;;;;;5081869;28;20225;-84
2023/05/15 04:25:57;;;;;;;32.63;18.77;;;12.70;99.90;;;;;;5061338;28;20043;-83
2023/05/15 04:28:22;;;;;;;39.88;19.98;;;12.70;99.90;;;;;;5063049;28;20017;-83
2023/05/15 04:30:48;;;;;;;32.55;18.80;;;12.70;99.90;;;;;;5040844;28;20036;-83
2023/05/15 04:33:14;;;;;;;39.67;19.63;;;12.70;99.90;;;;;;5045223;28;20031;-84
2023/05/15 04:35:40;;;;;;;32.28;18.98;;;12.70;99.90;;;;;;5061916;28;20021;-83
2023/05/15 04:38:06;;;;;;;30.23;19.60;;;12.60;99.90;;;;;;5042940;28;20507;-82
2023/05/15 04:40:31;;;;;;;35.08;19.33;;;12.60;99.90;;;;;;5061569;28;20377;-83
2023/05/15 04:42:57;;;;;;;38.05;19.92;;;12.70;99.90;;;;;;5060624;28;20021;-82
2023/05/15 04:45:25;;;;;;;34.75;19.40;;;12.60;99.90;;;;;;5062107;28;20153;-84
2023/05/15 04:47:51;;;;;;;30.50;18.52;;;12.60;99.90;;;;;;5040908;28;20431;-83
2023/05/15 04:50:17;;;;;;;36.08;18.85;;;12.60;99.90;;;;;;5060888;28;20021;-84
2023/05/15 04:52:42;;;;;;;38.55;20.48;;;12.60;99.90;;;;;;5060910;28;21397;-82
2023/05/15 04:55:08;;;;;;;31.30;19.10;;;12.60;99.90;;;;;;5041823;28;20014;-82
2023/05/15 04:57:34;;;;;;;35.92;19.45;;;12.70;99.90;;;;;;5062676;28;20427;-83
2023/05/15 05:00:04;;;;;;;32.17;18.60;;;12.70;99.90;;;;;;5041195;28;20491;-84
2023/05/15 05:02:34;;;;;;;35.53;19.27;;;12.90;99.90;;;;;;5056506;28;20521;-83
2023/05/15 05:05:03;;;;;;;36.10;18.45;;;12.90;99.90;;;;;;5058122;28;20024;-81
2023/05/15 05:07:29;;;;;;;36.95;18.40;;;13.00;99.90;;;;;;5038860;28;20025;-84
2023/05/15 05:09:55;;;;;;;26.98;17.98;;;13.10;99.90;;;;;;5045323;28;20024;-89
2023/05/15 05:12:20;;;;;;;36.83;19.23;;;13.00;99.90;;;;;;5068233;28;20500;-84
2023/05/15 05:14:46;;;;;;;29.00;18.77;;;13.10;99.90;;;;;;5049643;28;20024;-85
2023/05/15 05:17:12;;;;;;;34.25;18.25;;;13.10;99.90;;;;;;5047101;28;20028;-82
2023/05/15 05:19:37;;;;;;;33.03;18.20;;;13.10;99.90;;;;;;5067952;28;20025;-86
2023/05/15 05:22:06;;;;;;;30.58;18.17;;;13.20;99.90;;;;;;5067098;28;20021;-82
2023/05/15 05:24:36;;;;;;;36.10;17.88;;;13.30;99.90;;;;;;5047233;28;20028;-86
2023/05/15 05:27:04;;;;;;;31.27;17.60;;;13.40;99.90;;;;;;5065699;28;20487;-87
2023/05/15 05:29:30;;;;;;;31.38;17.20;;;13.50;99.90;;;;;;5063890;28;20028;-82
2023/05/15 05:31:56;;;;;;;24.30;16.23;;;13.70;99.90;;;;;;5064384;28;20115;-85
2023/05/15 05:34:22;;;;;;;29.63;16.38;;;13.80;99.90;;;;;;5041273;28;20480;-82
2023/05/15 05:36:48;;;;;;;30.25;17.38;;;14.00;99.90;;;;;;5047847;28;20035;-85
2023/05/15 05:39:17;;;;;;;27.08;17.13;;;14.10;99.90;;;;;;5053226;28;20033;-84
2023/05/15 05:41:43;;;;;;;29.73;17.75;;;14.10;99.90;;;;;;5064911;28;20494;-82
2023/05/15 05:44:09;;;;;;;32.83;16.20;;;14.10;99.90;;;;;;5068681;28;20028;-85
2023/05/15 05:46:35;;;;;;;25.55;15.43;;;14.10;99.90;;;;;;5068857;28;20020;-80
2023/05/15 05:49:02;;;;;;;27.65;15.50;;;14.20;99.90;;;;;;5042187;28;20297;-80
2023/05/15 05:51:28;;;;;;;23.65;15.13;;;14.20;99.90;;;;;;5062430;28;20028;-80
2023/05/15 05:53:54;;;;;;;27.42;14.43;;;14.10;99.90;;;;;;5067171;28;20041;-79
2023/05/15 05:56:22;;;;;;;25.17;15.35;;;14.10;99.90;;;;;;5061402;28;20104;-84
2023/05/15 05:58:48;;;;;;;29.42;15.73;;;14.10;99.90;;;;;;5045633;28;20024;-84
2023/05/15 06:03:49;;;;;;;29.15;14.63;;;14.00;99.90;;;;;;5003892;28;20044;-87
2023/05/15 06:06:15;;;;;;;29.23;15.45;;;13.90;99.90;;;;;;4983242;28;20022;-88
2023/05/15 06:08:41;;;;;;;26.13;15.55;;;13.90;99.90;;;;;;4982786;28;20019;-85
2023/05/15 06:11:06;;;;;;;30.38;15.73;;;13.80;99.90;;;;;;5000876;28;20195;-88
2023/05/15 06:13:32;;;;;;;25.70;15.80;;;13.80;99.90;;;;;;5003488;28;20402;-84
2023/05/15 06:15:57;;;;;;;29.35;15.80;;;13.90;99.90;;;;;;5005645;28;20018;-89
2023/05/15 06:18:23;;;;;;;26.63;15.70;;;13.90;99.90;;;;;;4986096;28;20025;-82
2023/05/15 06:20:49;;;;;;;29.00;16.20;;;13.90;99.90;;;;;;4994118;28;20366;-89
2023/05/15 06:23:14;;;;;;;27.23;15.23;;;13.90;99.90;;;;;;4983341;28;20018;-85
2023/05/15 06:25:40;;;;;;;28.50;15.80;;;13.90;99.90;;;;;;4993272;28;20033;-90
2023/05/15 06:28:06;;;;;;;32.22;16.65;;;14.00;99.90;;;;;;5005432;28;20084;-87
2023/05/15 06:30:33;;;;;;;27.50;16.63;;;14.10;99.90;;;;;;5002451;28;20018;-90
2023/05/15 06:32:59;;;;;;;34.50;16.70;;;14.20;99.90;;;;;;4999633;28;20030;-87
2023/05/15 06:38:07;;;;;;;30.35;17.15;;;14.40;99.90;;;;;;5081213;22;20615;-81
2023/05/15 06:40:32;;;;;;;32.83;16.55;;;14.70;99.90;;;;;;5022126;28;20018;-83
2023/05/15 06:42:58;;;;;;;27.38;15.95;;;14.80;99.90;;;;;;5022376;28;20064;-81
2023/05/15 06:45:26;;;;;;;31.35;17.20;;;15.00;99.90;;;;;;5013083;28;20010;-81
2023/05/15 06:47:52;;;;;;;26.42;16.73;;;15.10;99.90;;;;;;5013767;28;20023;-82
2023/05/15 06:50:18;;;;;;;29.13;17.85;;;15.30;99.90;;;;;;4998256;28;20025;-80
2023/05/15 06:52:43;;;;;;;29.85;17.17;;;15.30;99.90;;;;;;4997093;28;20033;-81
2023/05/15 06:55:09;;;;;;;25.23;15.55;;;15.40;99.90;;;;;;5011538;28;20397;-81
2023/05/15 06:57:35;;;;;;;26.92;16.15;;;15.50;99.90;;;;;;5012206;28;20064;-81
2023/05/15 07:00:00;;;;;;;26.63;15.15;;;15.50;99.90;;;;;;4995682;28;20018;-81
2023/05/15 07:02:26;;;;;;;29.17;14.90;;;15.10;99.90;;;;;;5013005;28;20014;-80
2023/05/15 07:04:51;;;;;;;27.65;15.65;;;14.90;99.90;;;;;;5007628;28;20056;-81
2023/05/15 07:07:17;;;;;;;29.90;15.63;;;14.90;99.90;;;;;;5014507;28;20675;-81
2023/05/15 07:09:47;;;;;;;29.15;14.57;;;14.90;99.90;;;;;;5023060;28;20102;-81
2023/05/15 07:12:13;;;;;;;29.60;15.77;;;14.80;99.90;;;;;;4996584;28;20038;-81
2023/05/15 07:14:39;;;;;;;29.42;14.85;;;14.80;99.90;;;;;;5013420;28;20697;-81
2023/05/15 07:17:04;;;;;;;28.08;15.32;;;14.90;99.90;;;;;;5013252;28;20026;-81
2023/05/15 07:19:30;;;;;;;25.30;14.48;;;14.90;99.90;;;;;;4995849;28;20414;-81
2023/05/15 07:21:56;;;;;;;25.35;13.98;;;14.80;99.90;;;;;;5012380;28;20022;-80
2023/05/15 07:24:24;;;;;;;24.20;13.50;;;14.90;99.90;;;;;;4998315;28;20493;-81
2023/05/15 07:26:49;;;;;;;26.85;14.07;;;14.90;99.90;;;;;;5012997;28;20045;-80
2023/05/15 07:29:18;;;;;;;27.25;14.60;;;14.90;99.90;;;;;;5014126;28;20022;-82
2023/05/15 07:31:43;;;;;;;25.38;15.32;;;14.90;99.90;;;;;;5000712;28;20026;-82
2023/05/15 07:34:10;;;;;;;25.33;14.10;;;15.00;99.90;;;;;;5014122;28;20037;-81
2023/05/15 07:36:41;;;;;;;21.98;14.07;;;15.10;99.90;;;;;;5012158;28;20080;-82
2023/05/15 07:39:07;;;;;;;25.60;13.95;;;15.30;99.90;;;;;;4996414;28;20116;-82
2023/05/15 07:41:32;;;;;;;28.13;13.73;;;15.40;99.90;;;;;;5001454;28;20619;-82
2023/05/15 07:43:58;;;;;;;24.05;14.20;;;15.60;99.90;;;;;;5012976;28;20029;-81
2023/05/15 07:46:26;;;;;;;26.05;14.35;;;15.70;99.90;;;;;;4999825;28;20029;-82
2023/05/15 07:48:51;;;;;;;29.17;15.13;;;15.90;99.90;;;;;;5002472;28;20034;-81
2023/05/15 07:51:17;;;;;;;27.92;15.63;;;15.90;99.90;;;;;;5012946;28;20055;-81
2023/05/15 07:53:43;;;;;;;30.55;15.70;;;15.90;99.90;;;;;;5012692;28;20577;-81
2023/05/15 07:56:08;;;;;;;27.40;16.42;;;16.10;99.90;;;;;;5011954;28;20022;-81
2023/05/15 07:58:36;;;;;;;29.10;15.75;;;16.40;99.90;;;;;;5010774;28;20361;-81
2023/05/15 08:01:02;;;;;;;27.85;15.02;;;16.50;99.90;;;;;;5002536;28;20732;-82
2023/05/15 08:03:31;;;;;;;20.45;13.27;;;16.80;99.90;;;;;;5011441;28;20089;-81
2023/05/15 08:05:56;;;;;;;25.05;14.27;;;17.10;99.90;;;;;;5010853;28;20026;-81
2023/05/15 08:08:22;;;;;;;27.38;14.57;;;17.40;99.90;;;;;;4992300;28;20024;-81
2023/05/15 08:10:50;;;;;;;24.13;14.65;;;17.40;99.90;;;;;;5014957;28;20026;-80
2023/05/15 08:13:15;;;;;;;21.20;14.23;;;17.60;99.90;;;;;;5010758;28;20072;-82
2023/05/15 08:15:41;;;;;;;20.55;13.95;;;17.80;99.90;;;;;;5011657;28;20312;-80
2023/05/15 08:18:09;;;;;;;22.92;14.10;;;17.80;99.90;;;;;;5008228;28;20033;-81
2023/05/15 08:20:35;;;;;;;23.38;13.18;;;17.90;99.90;;;;;;4995118;28;20029;-81
2023/05/15 08:23:02;;;;;;;21.75;13.18;;;18.20;99.90;;;;;;5009210;28;20029;-81
2023/05/15 08:25:28;;;;;;;19.83;12.60;;;18.40;99.90;;;;;;4998658;28;20029;-81
2023/05/15 08:27:54;;;;;;;22.02;13.75;;;18.50;99.90;;;;;;4995205;28;20026;-81
2023/05/15 08:30:19;;;;;;;19.23;12.80;;;18.40;99.90;;;;;;5013157;28;20034;-81
2023/05/15 08:32:45;;;;;;;28.60;14.07;;;18.50;99.90;;;;;;5008723;28;20040;-81
2023/05/15 08:35:12;;;;;;;22.52;13.70;;;18.70;99.90;;;;;;4994822;28;20054;-81
2023/05/15 08:37:38;;;;;;;22.38;13.73;;;18.80;99.90;;;;;;5010678;28;20030;-81
2023/05/15 08:40:05;;;;;;;27.30;14.43;;;18.90;99.90;;;;;;4993715;28;20539;-81
2023/05/15 08:42:46;;;;;;;26.30;15.30;;;18.80;99.90;;;;;;4995397;28;20109;-81
2023/05/15 08:45:12;;;;;;;22.25;13.95;;;18.60;99.90;;;;;;5010683;28;20022;-81
2023/05/15 08:47:40;;;;;;;20.90;14.05;;;18.50;99.90;;;;;;5002187;28;20036;-81
2023/05/15 08:50:13;;;;;;;22.85;13.52;;;18.70;99.90;;;;;;4991149;28;20018;-81
2023/05/15 08:52:45;;;;;;;24.73;14.05;;;18.90;99.90;;;;;;4995179;28;20041;-81
2023/05/15 08:55:13;;;;;;;23.40;14.37;;;19.10;99.90;;;;;;5013068;28;20033;-81
2023/05/15 08:57:40;;;;;;;20.33;13.68;;;19.40;99.90;;;;;;5009138;28;20026;-82
2023/05/15 09:00:13;;;;;;;20.42;13.57;;;19.70;99.90;;;;;;5001106;28;20029;-82
2023/05/15 09:02:41;;;;;;;22.15;13.85;;;20.10;99.90;;;;;;5012905;28;20029;-81
2023/05/15 09:05:08;;;;;;;20.75;13.77;;;20.70;99.90;;;;;;5000992;28;20017;-81
2023/05/15 09:07:37;;;;;;;27.30;14.23;;;20.40;99.90;;;;;;5011052;28;20388;-81
2023/05/15 09:10:03;;;;;;;17.63;13.35;;;20.70;99.90;;;;;;5003484;28;20068;-81
2023/05/15 09:12:32;;;;;;;17.15;12.63;;;21.00;99.90;;;;;;5008133;28;20033;-82
2023/05/15 09:15:28;;;;;;;18.85;12.75;;;21.10;99.90;;;;;;4999857;28;20018;-81
2023/05/15 09:17:55;;;;;;;19.92;11.45;;;21.10;99.90;;;;;;4989098;28;20773;-81
2023/05/15 09:20:29;;;;;;;14.38;11.57;;;21.50;99.90;;;;;;4998563;28;20125;-82
2023/05/15 09:22:59;;;;;;;21.67;12.15;;;21.30;99.30;;;;;;5016946;28;20067;-81
2023/05/15 09:25:32;;;;;;;17.70;12.57;;;21.40;99.90;;;;;;5018006;28;20555;-81
2023/05/15 09:27:58;;;;;;;;;;;21.80;99.90;;;;;;5014646;28;20084;-81
2023/05/15 09:30:26;;;;;;;14.52;10.88;;;22.30;99.40;;;;;;5004745;28;20307;-81
2023/05/15 09:32:53;;;;;;;20.08;11.18;;;22.50;99.50;;;;;;5001175;28;20029;-81
2023/05/15 09:35:36;;;;;;;14.40;10.45;;;22.90;98.50;;;;;;4998586;28;20108;-82
2023/05/15 09:38:08;;;;;;;16.05;11.82;;;23.40;94.60;;;;;;5012998;28;20321;-81
2023/05/15 09:40:33;;;;;;;14.75;11.50;;;23.20;96.00;;;;;;4998390;28;20026;-81
2023/05/15 09:42:59;;;;;;;16.60;10.30;;;23.10;96.70;;;;;;5014239;28;20022;-81
2023/05/15 09:45:25;;;;;;;15.45;10.25;;;23.20;95.10;;;;;;5017780;28;20148;-80
2023/05/15 09:47:52;;;;;;;17.63;10.45;;;23.20;92.90;;;;;;5004353;28;20059;-81
2023/05/15 09:50:23;;;;;;;12.43;10.02;;;23.10;93.00;;;;;;5003273;28;20081;-81
2023/05/15 09:52:50;;;;;;;15.98;11.98;;;23.10;94.10;;;;;;5016358;28;20041;-81
2023/05/15 09:55:19;;;;;;;16.73;11.27;;;23.20;93.50;;;;;;5011724;28;20033;-82
2023/05/15 09:58:09;;;;;;;16.98;12.20;;;23.40;94.00;;;;;;5016979;28;20022;-81
2023/05/15 10:00:36;;;;;;;18.80;13.07;;;23.90;94.70;;;;;;5008803;28;20345;-81
2023/05/15 10:03:03;;;;;;;20.30;12.57;;;23.90;94.00;;;;;;5004986;28;20052;-81
2023/05/15 10:05:29;;;;;;;17.05;13.77;;;23.90;94.20;;;;;;5010670;28;20507;-81
2023/05/15 10:07:56;;;;;;;19.92;13.25;;;24.10;92.50;;;;;;4996039;28;20634;-81
2023/05/15 10:10:22;;;;;;;19.10;12.73;;;24.10;92.90;;;;;;5014676;28;20025;-81
2023/05/15 10:12:50;;;;;;;17.30;13.25;;;23.70;92.40;;;;;;5012365;28;20532;-80
2023/05/15 10:15:20;;;;;;;21.30;13.60;;;23.70;93.10;;;;;;5014191;28;20064;-80
2023/05/15 10:17:48;;;;;;;23.83;12.55;;;24.00;93.20;;;;;;5014698;28;20025;-80
2023/05/15 10:20:19;;;;;;;20.58;13.60;;;24.10;90.90;;;;;;5014451;28;20036;-81
2023/05/15 10:22:50;;;;;;;25.00;13.73;;;24.00;91.70;;;;;;5002234;28;20026;-81
2023/05/15 10:25:38;;;;;;;20.30;13.88;;;24.00;92.40;;;;;;4998742;28;20022;-81
2023/05/15 10:28:08;;;;;;;21.23;12.40;;;24.00;91.80;;;;;;4996139;28;20037;-80
2023/05/15 10:30:35;;;;;;;16.40;12.65;;;23.80;91.00;;;;;;4997871;28;20026;-79
2023/05/15 10:33:04;;;;;;;18.88;12.50;;;23.60;91.60;;;;;;5013199;28;20429;-80
2023/05/15 10:35:31;;;;;;;16.25;12.38;;;24.50;92.20;;;;;;4998122;28;20026;-80
2023/05/15 10:37:57;;;;;;;18.17;12.32;;;24.40;90.00;;;;;;5013523;28;20026;-81
2023/05/15 10:40:23;;;;;;;22.92;13.70;;;23.70;90.00;;;;;;5013623;28;20256;-81
2023/05/15 10:42:49;;;;;;;18.45;14.05;;;23.50;90.60;;;;;;5018063;28;20409;-81
2023/05/15 10:45:14;;;;;;;17.83;14.00;;;23.40;90.70;;;;;;5000150;28;20022;-80
2023/05/15 10:47:42;;;;;;;18.25;12.20;;;23.70;90.80;;;;;;5014293;28;20025;-81
2023/05/15 10:50:09;;;;;;;17.20;12.07;;;24.30;89.50;;;;;;4995899;28;20021;-81
2023/05/15 10:52:36;;;;;;;18.23;13.43;;;25.00;87.90;;;;;;5011021;28;20375;-81
2023/05/15 10:55:04;;;;;;;18.92;12.35;;;25.10;87.10;;;;;;4996861;28;20489;-80
2023/05/15 10:57:31;;;;;;;18.70;12.50;;;24.80;83.00;;;;;;4996280;28;20032;-81
2023/05/15 10:59:57;;;;;;;15.00;10.82;;;24.90;83.90;;;;;;5013669;28;20033;-81
2023/05/15 11:02:25;;;;;;;11.93;9.45;;;25.10;82.00;;;;;;4994733;28;20446;-81
2023/05/15 11:04:56;;;;;;;17.00;12.63;;;25.20;80.60;;;;;;5014376;28;20025;-80
2023/05/15 11:07:23;;;;;;;18.00;10.50;;;25.40;78.30;;;;;;5014952;28;20463;-80
2023/05/15 11:09:49;;;;;;;15.32;10.40;;;24.90;76.00;;;;;;5014045;28;20022;-80
2023/05/15 11:12:15;;;;;;;15.63;13.18;;;24.70;77.90;;;;;;5015307;28;20469;-79
2023/05/15 11:14:55;;;;;;;15.85;13.13;;;24.30;77.50;;;;;;5015742;28;20037;-80
2023/05/15 11:17:24;;;;;;;13.88;8.95;;;24.10;77.70;;;;;;5013687;28;20133;-81
2023/05/15 11:19:50;;;;;;;15.23;9.63;;;23.80;73.10;;;;;;5000807;28;20018;-80
2023/05/15 11:22:19;;;;;;;16.20;9.65;;;23.80;73.60;;;;;;5004265;28;20021;-80
2023/05/15 11:24:59;;;;;;;13.77;10.93;;;23.90;77.00;;;;;;5015957;28;20014;-80
2023/05/15 11:27:45;;;;;;;17.58;10.88;;;24.30;74.10;;;;;;5013322;28;20492;-80
2023/05/15 11:30:21;;;;;;;16.58;11.05;;;24.10;76.00;;;;;;4994111;28;20025;-79
2023/05/15 11:32:58;;;;;;;19.35;11.43;;;24.40;81.00;;;;;;4995856;28;20038;-79
2023/05/15 11:35:33;;;;;;;17.38;13.02;;;24.80;79.90;;;;;;5015457;28;20026;-80
2023/05/15 11:38:10;;;;;;;20.25;14.50;;;25.10;78.60;;;;;;5013347;28;20033;-81
2023/05/15 11:40:53;;;;;;;22.52;15.73;;;24.90;82.70;;;;;;4991749;28;20018;-80
2023/05/15 11:43:34;;;;;;;25.17;16.50;;;24.90;79.50;;;;;;5010081;28;20025;-80
2023/05/15 11:46:12;;;;;;;25.80;16.02;;;25.30;80.80;;;;;;5016544;28;20099;-80
2023/05/15 11:48:43;;;;;;;18.33;14.38;;;25.50;79.30;;;;;;4999060;28;20436;-81
2023/05/15 11:51:26;;;;;;;20.35;13.88;;;25.00;77.20;;;;;;5011177;28;20465;-80
2023/05/15 11:53:53;;;;;;;15.63;12.65;;;24.80;78.70;;;;;;5013933;28;20040;-80
2023/05/15 11:56:21;;;;;;;27.95;14.20;;;25.10;78.00;;;;;;5014256;28;20280;-80
2023/05/15 11:58:59;;;;;;;21.20;15.20;;;24.90;73.60;;;;;;5003165;28;20032;-80
2023/05/15 12:01:25;;;;;;;25.88;13.73;;;25.00;76.20;;;;;;5013166;28;20178;-79
2023/05/15 12:03:53;;;;;;;22.02;14.55;;;25.40;79.20;;;;;;4999959;28;20026;-80
2023/05/15 12:06:18;;;;;;;19.38;14.82;;;25.80;75.20;;;;;;5012128;28;20029;-79
2023/05/15 12:08:51;;;;;;;29.10;16.73;;;25.80;75.50;;;;;;5009009;28;20550;-79
2023/05/15 12:11:20;;;;;;;20.35;15.25;;;25.70;75.70;;;;;;5003396;28;20030;-79
2023/05/15 12:13:53;;;;;;;21.35;15.38;;;25.90;77.90;;;;;;4998654;28;20099;-79
2023/05/15 12:16:25;;;;;;;22.20;15.43;;;26.00;76.60;;;;;;5013308;28;20218;-79
2023/05/15 12:18:52;;;;;;;22.10;17.05;;;25.80;75.10;;;;;;5011674;28;20033;-80
2023/05/15 12:21:17;;;;;;;26.02;15.35;;;26.00;76.40;;;;;;5012808;28;20080;-79
2023/05/15 12:23:51;;;;;;;26.35;17.90;;;26.30;75.30;;;;;;5011083;28;20030;-80
2023/05/15 12:26:17;;;;;;;25.70;17.30;;;26.40;72.70;;;;;;5013124;28;20025;-80
2023/05/15 12:28:44;;;;;;;26.45;19.38;;;26.40;72.80;;;;;;4992245;28;20108;-79
2023/05/15 12:31:10;;;;;;;27.10;17.92;;;26.30;73.50;;;;;;5013542;28;20353;-80
2023/05/15 12:33:39;;;;;;;26.42;17.70;;;26.10;78.20;;;;;;5016058;28;20042;-80
2023/05/15 12:36:10;;;;;;;26.55;19.40;;;26.00;78.10;;;;;;5011156;28;20014;-80
2023/05/15 12:38:36;;;;;;;24.05;18.75;;;26.30;75.40;;;;;;5011954;28;20150;-80